Time;durP1;ratioP1;P1;durP2;ratioP2;P2;SDS_P1;SDS_P2;PMS_P1;PMS_P2;Temp;Humidity;BMP_temperature;BMP_pressure;BME280_temperature;BME280_humidity;BME280_pressure;Samples;Min_cycle;Max_cycle;Signal;HPM_P1;HPM_P2
2022/07/17 00:09:33;;;;;;;1.25;0.80;;;;;;;18.84;72.87;102442.47;20930772;28;20044;-75
2022/07/17 00:19:35;;;;;;;2.00;1.13;;;;;;;18.83;72.83;102431.75;20964227;28;20139;-75
2022/07/17 00:29:36;;;;;;;1.95;0.80;;;;;;;18.82;72.62;102427.34;20837048;28;20128;-75
2022/07/17 00:39:38;;;;;;;1.73;0.80;;;;;;;18.81;72.40;102420.22;20798199;28;20099;-75
2022/07/17 00:49:41;;;;;;;1.55;0.90;;;;;;;18.81;72.37;102422.91;20796084;28;20049;-75
2022/07/17 00:59:42;;;;;;;1.05;0.73;;;;;;;18.72;72.03;102407.38;20803230;28;20042;-75
2022/07/17 01:09:44;;;;;;;1.33;1.00;;;;;;;18.79;72.18;102422.16;20889599;28;20131;-75
2022/07/17 01:19:45;;;;;;;1.08;0.73;;;;;;;18.64;71.96;102395.28;20931427;28;20071;-75
2022/07/17 01:29:47;;;;;;;1.35;0.80;;;;;;;18.59;71.69;102394.72;20899309;28;20467;-75
2022/07/17 01:39:55;;;;;;;1.10;0.77;;;;;;;18.70;71.75;102397.53;20872022;28;20103;-76
2022/07/17 01:49:57;;;;;;;1.00;0.68;;;;;;;18.76;71.45;102433.16;20857148;28;20049;-75
2022/07/17 01:59:59;;;;;;;1.67;1.13;;;;;;;18.51;70.96;102415.94;20873923;28;20110;-75
2022/07/17 02:10:01;;;;;;;0.60;0.60;;;;;;;18.73;71.28;102433.38;20882536;28;20068;-75
2022/07/17 02:20:04;;;;;;;1.58;0.77;;;;;;;18.67;71.07;102440.03;20866675;28;20045;-75
2022/07/17 02:30:08;;;;;;;1.52;0.80;;;;;;;18.73;70.94;102460.34;20875344;28;20051;-75
2022/07/17 02:40:10;;;;;;;0.70;0.50;;;;;;;18.64;70.66;102438.44;20881324;28;20559;-75
2022/07/17 02:50:12;;;;;;;1.60;0.70;;;;;;;18.70;70.52;102450.63;20876496;28;20103;-75
2022/07/17 03:00:16;;;;;;;0.80;0.52;;;;;;;18.68;70.56;102442.63;20863218;28;20098;-75
2022/07/17 03:10:17;;;;;;;1.60;0.70;;;;;;;18.68;70.54;102421.06;20885016;28;20060;-75
2022/07/17 03:20:19;;;;;;;0.73;0.55;;;;;;;18.61;70.32;102425.16;20883166;28;20045;-74
2022/07/17 03:30:20;;;;;;;0.82;0.50;;;;;;;18.66;70.22;102455.38;20897902;28;20106;-74
2022/07/17 03:40:22;;;;;;;2.72;1.00;;;;;;;18.62;65.55;102443.06;20882114;28;20052;-74
2022/07/17 03:50:24;;;;;;;2.72;1.27;;;;;;;18.52;59.83;102455.41;20881413;28;20059;-76
2022/07/17 04:00:26;;;;;;;2.03;1.00;;;;;;;18.16;56.85;102428.09;20904974;28;20045;-76
2022/07/17 04:10:27;;;;;;;1.00;0.85;;;;;;;18.13;59.48;102451.72;20871722;28;20455;-76
2022/07/17 04:20:29;;;;;;;2.92;1.00;;;;;;;18.01;61.95;102448.81;20879008;28;20405;-76
2022/07/17 04:30:30;;;;;;;3.80;0.98;;;;;;;18.09;62.83;102468.06;20879794;28;20080;-79
2022/07/17 04:40:32;;;;;;;3.53;1.35;;;;;;;18.08;63.55;102460.09;20864102;28;20049;-77
2022/07/17 04:50:34;;;;;;;1.92;1.00;;;;;;;18.07;64.27;102453.81;20854844;28;20404;-78
2022/07/17 05:00:36;;;;;;;2.53;1.30;;;;;;;18.09;64.71;102470.75;20892659;28;20099;-77
2022/07/17 05:10:37;;;;;;;1.35;0.90;;;;;;;18.07;64.93;102480.75;20875036;28;20048;-77
2022/07/17 05:20:40;;;;;;;2.70;1.70;;;;;;;17.96;65.00;102473.34;20873575;28;20045;-77
2022/07/17 05:30:42;;;;;;;4.13;1.10;;;;;;;17.79;66.29;102434.03;20883550;28;20049;-77
2022/07/17 05:40:43;;;;;;;2.67;1.05;;;;;;;17.57;67.53;102450.69;20892468;28;20586;-77
2022/07/17 05:50:45;;;;;;;2.67;1.20;;;;;;;17.49;68.67;102444.91;20866118;28;20045;-77
2022/07/17 06:00:48;;;;;;;3.10;1.08;;;;;;;17.57;69.82;102477.59;20878642;28;20144;-77
2022/07/17 06:10:50;;;;;;;3.70;1.17;;;;;;;17.56;70.43;102480.38;20880903;28;20087;-75
2022/07/17 06:20:52;;;;;;;2.30;1.02;;;;;;;17.66;71.44;102495.00;20850432;28;20064;-76
2022/07/17 06:30:53;;;;;;;1.50;0.85;;;;;;;17.75;72.02;102497.16;20890660;28;20041;-75
2022/07/17 06:40:55;;;;;;;4.32;1.33;;;;;;;17.94;74.98;102529.19;20858794;28;20045;-75
2022/07/17 06:50:57;;;;;;;5.80;1.40;;;;;;;18.05;78.88;102519.56;20830099;28;20951;-76
2022/07/17 07:00:58;;;;;;;6.80;1.30;;;;;;;18.14;83.83;102526.22;20860763;28;20460;-74
2022/07/17 07:11:01;;;;;;;6.45;1.85;;;;;;;18.16;78.87;102518.91;20868935;28;20521;-74
2022/07/17 07:21:02;;;;;;;3.92;1.08;;;;;;;18.18;77.63;102525.06;20864128;28;20049;-75
2022/07/17 07:31:04;;;;;;;4.78;0.95;;;;;;;18.19;77.09;102516.84;20770715;28;20155;-75
2022/07/17 07:41:06;;;;;;;4.80;1.35;;;;;;;18.20;77.05;102504.25;20848020;28;20072;-75
2022/07/17 07:51:08;;;;;;;2.30;0.80;;;;;;;18.14;76.63;102496.56;20873265;28;20049;-75
2022/07/17 08:01:09;;;;;;;2.97;1.00;;;;;;;18.24;76.23;102530.91;20837685;28;20045;-75
2022/07/17 08:11:11;;;;;;;3.40;0.98;;;;;;;18.25;75.81;102529.09;20848118;28;20057;-76
2022/07/17 08:21:12;;;;;;;1.70;0.88;;;;;;;18.26;75.63;102530.81;20775159;28;20072;-76
2022/07/17 08:31:14;;;;;;;2.97;0.90;;;;;;;18.30;76.60;102555.72;20859096;28;20127;-75
2022/07/17 08:41:16;;;;;;;3.10;0.80;;;;;;;18.35;78.37;102554.47;20826811;28;20065;-76
2022/07/17 08:51:19;;;;;;;2.05;0.73;;;;;;;18.41;78.30;102543.28;20786880;28;21907;-77
2022/07/17 09:01:20;;;;;;;1.90;0.73;;;;;;;18.26;76.93;102520.88;20755180;28;20053;-77
2022/07/17 09:11:22;;;;;;;1.80;0.70;;;;;;;18.47;76.33;102549.25;20777253;28;20065;-76
2022/07/17 09:21:25;;;;;;;4.55;1.45;;;;;;;18.47;76.84;102535.75;20829872;28;20061;-76
2022/07/17 09:31:30;;;;;;;3.63;0.70;;;;;;;18.46;76.90;102518.72;20861853;28;20076;-75
2022/07/17 09:41:33;;;;;;;3.08;0.70;;;;;;;18.40;77.13;102513.75;20882366;28;20520;-76
2022/07/17 09:51:38;;;;;;;3.85;0.73;;;;;;;18.55;77.39;102517.22;20868128;28;20056;-77
2022/07/17 10:01:42;;;;;;;5.10;1.17;;;;;;;18.61;77.41;102513.28;20885522;28;20055;-77
2022/07/17 10:11:44;;;;;;;3.00;0.70;;;;;;;18.65;77.43;102507.59;20801246;28;20053;-76
2022/07/17 10:21:56;;;;;;;2.37;0.87;;;;;;;18.69;77.35;102509.13;20799257;28;20494;-75
2022/07/17 10:32:03;;;;;;;2.50;0.82;;;;;;;18.50;77.29;102481.63;20857488;28;20095;-75
2022/07/17 10:42:05;;;;;;;3.03;0.80;;;;;;;18.49;76.96;102491.56;20868709;28;20049;-75
2022/07/17 10:52:06;;;;;;;2.17;0.70;;;;;;;18.68;77.13;102528.97;20868826;28;20049;-75
2022/07/17 11:02:08;;;;;;;1.48;0.60;;;;;;;18.66;77.03;102525.50;20762368;28;20050;-75
2022/07/17 11:12:10;;;;;;;2.00;0.68;;;;;;;18.66;76.83;102528.22;20843478;28;20052;-75
2022/07/17 11:22:12;;;;;;;1.83;0.68;;;;;;;18.68;76.84;102517.28;20868944;28;20048;-76
2022/07/17 11:32:14;;;;;;;3.88;0.73;;;;;;;18.70;76.95;102510.84;20802908;28;20114;-77
2022/07/17 11:42:18;;;;;;;1.00;0.50;;;;;;;18.74;77.08;102502.53;20796316;28;20569;-76
2022/07/17 11:52:21;;;;;;;1.55;0.68;;;;;;;18.51;77.21;102456.38;20851774;28;20067;-76
2022/07/17 12:02:29;;;;;;;1.20;0.73;;;;;;;18.75;77.65;102482.69;20850619;28;20061;-75
2022/07/17 12:12:31;;;;;;;5.45;1.13;;;;;;;18.80;77.75;102494.03;20811678;28;20480;-77
2022/07/17 12:22:47;;;;;;;1.70;0.77;;;;;;;18.81;77.84;102482.28;20777185;28;20076;-76
2022/07/17 12:32:48;;;;;;;3.38;0.93;;;;;;;18.83;78.11;102474.94;20858161;28;20103;-76
2022/07/17 12:42:50;;;;;;;1.58;0.85;;;;;;;18.85;78.11;102473.00;20761932;28;20096;-75
2022/07/17 12:52:52;;;;;;;0.80;0.80;;;;;;;18.86;77.95;102463.09;20770210;28;20049;-75
2022/07/17 13:03:04;;;;;;;1.35;0.70;;;;;;;18.83;77.90;102450.66;20816274;28;21925;-75
2022/07/17 13:13:05;;;;;;;2.03;0.73;;;;;;;18.74;77.72;102425.16;20814034;28;20405;-76
2022/07/17 13:23:07;;;;;;;3.33;0.75;;;;;;;18.81;77.64;102436.41;20781599;28;20068;-76
2022/07/17 13:33:10;;;;;;;1.85;0.80;;;;;;;18.80;77.59;102430.16;20783956;28;20520;-76
2022/07/17 13:43:11;;;;;;;2.42;0.90;;;;;;;18.58;77.71;102395.69;20865594;28;20628;-75
2022/07/17 13:53:13;;;;;;;1.20;0.80;;;;;;;18.77;77.79;102437.59;20875528;28;20041;-74
2022/07/17 14:03:15;;;;;;;1.70;0.93;;;;;;;18.76;77.62;102428.59;20862310;28;20057;-76
2022/07/17 14:13:16;;;;;;;2.35;0.75;;;;;;;18.76;77.48;102414.28;20873752;28;20131;-76
2022/07/17 14:23:18;;;;;;;2.72;0.93;;;;;;;18.74;77.53;102408.97;20858976;28;20160;-77
2022/07/17 14:33:19;;;;;;;3.03;1.05;;;;;;;18.73;77.53;102384.81;20849399;28;20045;-76
2022/07/17 14:43:22;;;;;;;1.08;0.90;;;;;;;18.75;77.69;102378.31;20784124;28;20667;-76
2022/07/17 14:53:23;;;;;;;1.85;0.88;;;;;;;18.76;77.62;102357.63;20774545;28;20076;-76
2022/07/17 15:03:25;;;;;;;0.95;0.80;;;;;;;18.76;77.51;102363.00;20771740;28;20057;-76
2022/07/17 15:13:26;;;;;;;4.80;1.65;;;;;;;18.76;77.85;102358.47;20837501;28;20106;-75
2022/07/17 15:23:28;;;;;;;2.92;1.60;;;;;;;18.66;77.98;102344.78;20851387;28;20045;-76
2022/07/17 15:33:30;;;;;;;4.30;1.70;;;;;;;18.80;78.59;102349.22;20778517;28;20152;-75
2022/07/17 15:43:31;;;;;;;4.93;1.83;;;;;;;18.79;78.72;102354.69;20826056;28;20553;-74
2022/07/17 15:53:33;;;;;;;5.18;2.00;;;;;;;18.76;78.99;102339.59;20852508;28;20454;-75
2022/07/17 16:03:34;;;;;;;4.13;1.90;;;;;;;18.80;79.26;102337.53;20837655;28;20041;-76
2022/07/17 16:13:44;;;;;;;3.05;1.83;;;;;;;18.80;79.65;102305.16;20761828;28;20556;-75
2022/07/17 16:23:46;;;;;;;5.80;2.53;;;;;;;18.80;79.98;102307.88;20822071;28;20081;-75
2022/07/17 16:33:47;;;;;;;4.25;1.75;;;;;;;18.81;79.84;102285.31;20837208;28;20060;-75
2022/07/17 16:43:49;;;;;;;4.38;2.13;;;;;;;18.82;79.66;102284.34;20804343;28;1081488;-76
2022/07/17 16:53:51;;;;;;;7.35;2.28;;;;;;;18.82;79.96;102276.25;20864676;28;20136;-75
2022/07/17 17:03:53;;;;;;;4.80;1.92;;;;;;;18.79;80.05;102257.56;20868662;28;20140;-75
2022/07/17 17:13:55;;;;;;;4.90;1.92;;;;;;;18.82;80.09;102260.06;20855324;28;20056;-74
2022/07/17 17:23:57;;;;;;;2.97;2.15;;;;;;;18.83;80.07;102257.25;20856307;28;20050;-75
2022/07/17 17:33:58;;;;;;;5.00;2.35;;;;;;;18.70;79.82;102218.63;20773782;28;20374;-74
2022/07/17 17:44:00;;;;;;;3.38;2.10;;;;;;;18.86;79.70;102231.88;20769966;28;20057;-76
2022/07/17 17:54:02;;;;;;;2.63;2.13;;;;;;;18.85;79.75;102235.53;20774872;28;20115;-77
2022/07/17 18:04:04;;;;;;;5.03;2.08;;;;;;;18.84;79.63;102233.81;20809588;28;20068;-77
2022/07/17 18:14:05;;;;;;;3.72;2.10;;;;;;;18.80;79.85;102235.91;20814388;28;20055;-77
2022/07/17 18:24:07;;;;;;;4.20;1.92;;;;;;;18.80;79.82;102225.09;20871662;28;20049;-76
2022/07/17 18:34:09;;;;;;;3.90;2.50;;;;;;;18.80;79.56;102235.03;20941735;28;20488;-76
2022/07/17 18:44:11;;;;;;;3.38;2.05;;;;;;;18.78;79.74;102226.19;20941191;28;20140;-76
2022/07/17 18:54:13;;;;;;;4.97;2.28;;;;;;;18.78;79.44;102215.38;20946058;28;20051;-75
2022/07/17 19:04:14;;;;;;;3.95;2.30;;;;;;;18.77;79.66;102213.66;20966947;28;20131;-75
2022/07/17 19:14:16;;;;;;;4.65;2.22;;;;;;;18.73;79.79;102222.94;20968676;28;20048;-76
2022/07/17 19:24:19;;;;;;;2.97;2.20;;;;;;;18.58;79.63;102209.59;20967833;28;20064;-76
2022/07/17 19:34:21;;;;;;;3.72;2.50;;;;;;;18.75;79.69;102231.78;20962154;28;20440;-75
2022/07/17 19:44:22;;;;;;;2.58;2.13;;;;;;;18.75;79.92;102245.28;20961404;28;20064;-76
2022/07/17 19:54:24;;;;;;;2.55;2.20;;;;;;;18.53;79.95;102200.94;20966309;28;20110;-75
2022/07/17 20:04:26;;;;;;;2.45;1.85;;;;;;;18.74;80.19;102240.84;20965174;28;20147;-77
2022/07/17 20:14:28;;;;;;;3.92;2.20;;;;;;;18.60;80.36;102228.34;20964992;28;20452;-76
2022/07/17 20:24:29;;;;;;;3.35;2.55;;;;;;;18.73;80.54;102249.94;20964847;28;20057;-76
2022/07/17 20:34:31;;;;;;;2.97;2.17;;;;;;;18.73;80.65;102255.31;20915882;28;20549;-76
2022/07/17 20:44:32;;;;;;;4.35;2.60;;;;;;;18.68;80.75;102244.84;20963956;28;20098;-76
2022/07/17 20:54:34;;;;;;;4.43;2.08;;;;;;;18.65;80.70;102237.84;20962836;28;20047;-76
2022/07/17 21:04:36;;;;;;;3.03;2.15;;;;;;;18.72;81.17;102234.72;20961793;28;20048;-75
2022/07/17 21:14:38;;;;;;;2.83;2.22;;;;;;;18.71;81.24;102247.31;20967173;28;20044;-75
2022/07/17 21:24:39;;;;;;;3.55;2.72;;;;;;;18.65;81.12;102243.25;20976336;28;20144;-75
2022/07/17 21:34:41;;;;;;;3.05;2.10;;;;;;;18.70;81.46;102242.91;20968710;28;20501;-76
2022/07/17 21:44:43;;;;;;;3.35;2.42;;;;;;;18.70;81.25;102241.06;20975288;28;20493;-76
2022/07/17 21:54:44;;;;;;;4.30;2.80;;;;;;;18.60;81.50;102229.22;20974772;28;20451;-76
2022/07/17 22:04:46;;;;;;;2.85;2.30;;;;;;;18.67;81.40;102246.69;20975062;28;20040;-76
2022/07/17 22:14:48;;;;;;;3.08;2.38;;;;;;;18.69;81.44;102238.47;20972072;28;20086;-77
2022/07/17 22:24:50;;;;;;;2.75;2.17;;;;;;;18.61;81.34;102236.34;20971590;28;20056;-76
2022/07/17 22:34:51;;;;;;;3.17;2.20;;;;;;;18.67;81.53;102241.28;20961009;28;20047;-75
2022/07/17 22:44:53;;;;;;;3.63;2.47;;;;;;;18.67;81.53;102241.28;20952243;28;20048;-76
2022/07/17 22:54:55;;;;;;;2.83;2.13;;;;;;;18.66;81.55;102234.19;20968932;28;20052;-75
2022/07/17 23:04:56;;;;;;;3.22;2.40;;;;;;;18.67;81.53;102241.28;20967038;28;20055;-76
2022/07/17 23:14:58;;;;;;;3.63;2.28;;;;;;;18.59;81.55;102203.22;20950987;28;20044;-75
2022/07/17 23:25:01;;;;;;;3.38;2.50;;;;;;;18.65;81.68;102210.88;20968162;28;20452;-75
2022/07/17 23:35:05;;;;;;;3.10;2.67;;;;;;;18.65;81.47;102199.22;20952022;28;20048;-75
2022/07/17 23:45:07;;;;;;;3.50;2.38;;;;;;;18.55;81.77;102197.16;20965135;28;20174;-75
2022/07/17 23:55:09;;;;;;;4.05;2.47;;;;;;;18.64;81.63;102216.38;20966084;28;20051;-76
